sensor_id;sensor_type;location;lat;lon;timestamp;pressure;altitude;pressure_sealevel;temperature;humidity
76052;BME280;64751;48.708;9.710;2023-11-18T15:32:45;98156.50;;;7.07;94.84
76052;BME280;64751;48.708;9.710;2023-11-18T15:35:17;98148.38;;;7.09;95.13
76052;BME280;64751;48.708;9.710;2023-11-18T15:37:52;98115.09;;;6.98;96.75
76052;BME280;64751;48.708;9.710;2023-11-18T15:40:19;98138.19;;;7.12;97.79
76052;BME280;64751;48.708;9.710;2023-11-18T15:42:51;98128.72;;;7.11;98.01
76052;BME280;64751;48.708;9.710;2023-11-18T15:45:19;98109.84;;;7.14;97.52
76052;BME280;64751;48.708;9.710;2023-11-18T15:47:52;98118.28;;;7.16;97.43
76052;BME280;64751;48.708;9.710;2023-11-18T15:50:19;98137.47;;;7.17;98.26
76052;BME280;64751;48.708;9.710;2023-11-18T15:52:52;98132.44;;;7.15;97.49
76052;BME280;64751;48.708;9.710;2023-11-18T15:55:24;98147.19;;;7.16;96.73
76052;BME280;64751;48.708;9.710;2023-11-18T15:57:58;98150.59;;;7.17;96.11
76052;BME280;64751;48.708;9.710;2023-11-18T16:00:30;98158.94;;;7.14;94.69
76052;BME280;64751;48.708;9.710;2023-11-18T16:02:59;98151.38;;;7.17;91.74
76052;BME280;64751;48.708;9.710;2023-11-18T16:05:27;98155.16;;;7.21;91.93
76052;BME280;64751;48.708;9.710;2023-11-18T16:07:59;98161.50;;;7.25;91.52
76052;BME280;64751;48.708;9.710;2023-11-18T16:10:32;98166.25;;;7.28;91.51
76052;BME280;64751;48.708;9.710;2023-11-18T16:13:00;98154.47;;;7.31;91.69
76052;BME280;64751;48.708;9.710;2023-11-18T16:15:33;98156.38;;;7.36;90.85
76052;BME280;64751;48.708;9.710;2023-11-18T16:18:05;98161.44;;;7.37;90.23
76052;BME280;64751;48.708;9.710;2023-11-18T16:20:32;98159.03;;;7.36;89.20
76052;BME280;64751;48.708;9.710;2023-11-18T16:23:00;98139.28;;;7.33;88.20
76052;BME280;64751;48.708;9.710;2023-11-18T16:25:29;98143.66;;;7.27;85.48
76052;BME280;64751;48.708;9.710;2023-11-18T16:28:02;98137.63;;;7.27;83.59
76052;BME280;64751;48.708;9.710;2023-11-18T16:30:35;98131.91;;;7.30;85.54
76052;BME280;64751;48.708;9.710;2023-11-18T16:33:04;98126.72;;;7.35;85.91
76052;BME280;64751;48.708;9.710;2023-11-18T16:35:38;98121.50;;;7.40;85.74
76052;BME280;64751;48.708;9.710;2023-11-18T16:38:10;98122.06;;;7.42;85.66
76052;BME280;64751;48.708;9.710;2023-11-18T16:40:44;98114.19;;;7.42;85.70
76052;BME280;64751;48.708;9.710;2023-11-18T16:43:12;98104.72;;;7.41;86.59
76052;BME280;64751;48.708;9.710;2023-11-18T16:45:44;98115.25;;;7.41;87.07
76052;BME280;64751;48.708;9.710;2023-11-18T16:48:13;98106.56;;;7.41;87.47
76052;BME280;64751;48.708;9.710;2023-11-18T16:50:46;98091.13;;;7.44;88.04
76052;BME280;64751;48.708;9.710;2023-11-18T16:53:18;98091.34;;;7.43;88.34
76052;BME280;64751;48.708;9.710;2023-11-18T16:55:50;98090.00;;;7.40;86.75
76052;BME280;64751;48.708;9.710;2023-11-18T16:58:18;98088.16;;;7.41;87.88
76052;BME280;64751;48.708;9.710;2023-11-18T17:00:46;98074.47;;;7.39;86.58
76052;BME280;64751;48.708;9.710;2023-11-18T17:03:23;98083.72;;;7.41;86.14
76052;BME280;64751;48.708;9.710;2023-11-18T17:05:53;98073.75;;;7.43;86.78
76052;BME280;64751;48.708;9.710;2023-11-18T17:08:26;98080.81;;;7.43;87.68
76052;BME280;64751;48.708;9.710;2023-11-18T17:10:53;98070.31;;;7.43;87.27
76052;BME280;64751;48.708;9.710;2023-11-18T17:13:21;98067.16;;;7.62;92.52
76052;BME280;64751;48.708;9.710;2023-11-18T17:15:48;98052.13;;;7.58;84.57
76052;BME280;64751;48.708;9.710;2023-11-18T17:18:21;98044.97;;;7.53;82.99
76052;BME280;64751;48.708;9.710;2023-11-18T17:20:55;98047.38;;;7.55;82.96
76052;BME280;64751;48.708;9.710;2023-11-18T17:23:22;98050.53;;;7.57;85.22
76052;BME280;64751;48.708;9.710;2023-11-18T17:25:51;98057.97;;;8.61;100.00
76052;BME280;64751;48.708;9.710;2023-11-18T17:28:19;98057.06;;;8.77;89.85
76052;BME280;64751;48.708;9.710;2023-11-18T17:30:47;98055.56;;;8.55;83.19
76052;BME280;64751;48.708;9.710;2023-11-18T17:33:19;98043.28;;;8.34;81.89
76052;BME280;64751;48.708;9.710;2023-11-18T17:35:47;98043.88;;;8.19;81.86
76052;BME280;64751;48.708;9.710;2023-11-18T17:38:15;98035.84;;;8.04;79.81
76052;BME280;64751;48.708;9.710;2023-11-18T17:40:51;98034.16;;;7.93;79.68
76052;BME280;64751;48.708;9.710;2023-11-18T17:43:18;98042.44;;;7.85;80.26
76052;BME280;64751;48.708;9.710;2023-11-18T17:45:51;98045.81;;;7.80;81.23
76052;BME280;64751;48.708;9.710;2023-11-18T17:48:25;98043.91;;;7.76;80.55
76052;BME280;64751;48.708;9.710;2023-11-18T17:50:58;98033.41;;;7.76;81.70
76052;BME280;64751;48.708;9.710;2023-11-18T17:53:27;98022.34;;;7.74;82.28
76052;BME280;64751;48.708;9.710;2023-11-18T17:55:59;98014.66;;;7.67;81.68
76052;BME280;64751;48.708;9.710;2023-11-18T17:58:32;97999.44;;;7.69;81.69
76052;BME280;64751;48.708;9.710;2023-11-18T18:00:59;97979.69;;;7.67;81.66
76052;BME280;64751;48.708;9.710;2023-11-18T18:03:33;97982.31;;;7.67;82.13
76052;BME280;64751;48.708;9.710;2023-11-18T18:06:06;97983.22;;;7.56;80.45
76052;BME280;64751;48.708;9.710;2023-11-18T18:08:44;97981.13;;;7.53;80.99
76052;BME280;64751;48.708;9.710;2023-11-18T18:11:17;97983.75;;;7.53;82.09
76052;BME280;64751;48.708;9.710;2023-11-18T18:13:49;97969.56;;;7.54;82.45
76052;BME280;64751;48.708;9.710;2023-11-18T18:16:22;97956.97;;;7.56;82.13
76052;BME280;64751;48.708;9.710;2023-11-18T18:18:54;97953.31;;;7.57;81.41
76052;BME280;64751;48.708;9.710;2023-11-18T18:21:28;97951.97;;;7.54;81.29
76052;BME280;64751;48.708;9.710;2023-11-18T18:24:02;97954.84;;;7.53;81.58
76052;BME280;64751;48.708;9.710;2023-11-18T18:26:29;97960.09;;;7.53;81.72
76052;BME280;64751;48.708;9.710;2023-11-18T18:29:02;97964.06;;;7.55;81.91
76052;BME280;64751;48.708;9.710;2023-11-18T18:31:35;97990.91;;;7.57;83.83
76052;BME280;64751;48.708;9.710;2023-11-18T18:34:07;97978.50;;;7.53;82.19
76052;BME280;64751;48.708;9.710;2023-11-18T18:36:35;97991.38;;;7.54;84.17
76052;BME280;64751;48.708;9.710;2023-11-18T18:39:11;97989.03;;;7.58;87.11
76052;BME280;64751;48.708;9.710;2023-11-18T18:41:44;97984.03;;;7.56;87.54
76052;BME280;64751;48.708;9.710;2023-11-18T18:44:17;97982.22;;;7.57;89.17
76052;BME280;64751;48.708;9.710;2023-11-18T18:46:49;97974.31;;;7.57;90.17
76052;BME280;64751;48.708;9.710;2023-11-18T18:49:17;97962.00;;;7.57;91.66
76052;BME280;64751;48.708;9.710;2023-11-18T18:51:44;97967.97;;;7.53;90.58
76052;BME280;64751;48.708;9.710;2023-11-18T18:54:18;97966.63;;;7.50;91.49
76052;BME280;64751;48.708;9.710;2023-11-18T18:56:51;97962.66;;;7.48;92.27
76052;BME280;64751;48.708;9.710;2023-11-18T18:59:18;97956.31;;;7.44;94.18
76052;BME280;64751;48.708;9.710;2023-11-18T19:01:46;97941.84;;;7.41;96.26
76052;BME280;64751;48.708;9.710;2023-11-18T19:04:15;97932.59;;;7.39;97.05
76052;BME280;64751;48.708;9.710;2023-11-18T19:06:42;97935.97;;;7.34;96.79
76052;BME280;64751;48.708;9.710;2023-11-18T19:09:15;97919.19;;;7.35;95.98
76052;BME280;64751;48.708;9.710;2023-11-18T19:11:51;97912.88;;;7.36;96.83
76052;BME280;64751;48.708;9.710;2023-11-18T19:14:23;97917.56;;;7.34;96.97
76052;BME280;64751;48.708;9.710;2023-11-18T19:16:57;97914.16;;;7.33;96.82
76052;BME280;64751;48.708;9.710;2023-11-18T19:19:27;97906.03;;;7.35;97.31
76052;BME280;64751;48.708;9.710;2023-11-18T19:21:59;97895.22;;;7.31;97.13
76052;BME280;64751;48.708;9.710;2023-11-18T19:24:33;97881.81;;;7.33;96.19
76052;BME280;64751;48.708;9.710;2023-11-18T19:27:06;97872.63;;;7.30;96.42
76052;BME280;64751;48.708;9.710;2023-11-18T19:29:42;97882.34;;;7.30;97.50
76052;BME280;64751;48.708;9.710;2023-11-18T19:32:14;97883.38;;;7.29;98.64
76052;BME280;64751;48.708;9.710;2023-11-18T19:34:47;97882.56;;;7.28;99.25
76052;BME280;64751;48.708;9.710;2023-11-18T19:37:14;97862.59;;;7.27;98.53
76052;BME280;64751;48.708;9.710;2023-11-18T19:39:48;97852.38;;;7.31;97.44
76052;BME280;64751;48.708;9.710;2023-11-18T19:42:17;97844.22;;;7.27;98.48
76052;BME280;64751;48.708;9.710;2023-11-18T19:44:50;97822.94;;;7.29;98.84
76052;BME280;64751;48.708;9.710;2023-11-18T19:47:19;97824.53;;;7.30;98.09
76052;BME280;64751;48.708;9.710;2023-11-18T19:49:52;97811.63;;;7.28;98.46
76052;BME280;64751;48.708;9.710;2023-11-18T19:52:24;97810.06;;;7.27;99.47
76052;BME280;64751;48.708;9.710;2023-11-18T19:54:52;97800.84;;;7.25;98.10
76052;BME280;64751;48.708;9.710;2023-11-18T19:57:21;97787.25;;;7.33;97.61
76052;BME280;64751;48.708;9.710;2023-11-18T19:59:48;97781.72;;;7.29;98.17
76052;BME280;64751;48.708;9.710;2023-11-18T20:02:21;97772.25;;;7.28;99.08
76052;BME280;64751;48.708;9.710;2023-11-18T20:04:49;97757.28;;;7.29;99.45
76052;BME280;64751;48.708;9.710;2023-11-18T20:07:21;97746.75;;;7.24;98.43
76052;BME280;64751;48.708;9.710;2023-11-18T20:09:55;97771.69;;;7.21;100.00
76052;BME280;64751;48.708;9.710;2023-11-18T20:12:25;97779.56;;;7.21;100.00
76052;BME280;64751;48.708;9.710;2023-11-18T20:14:57;97797.69;;;7.23;100.00
76052;BME280;64751;48.708;9.710;2023-11-18T20:17:31;97785.84;;;7.20;100.00
76052;BME280;64751;48.708;9.710;2023-11-18T20:20:05;97766.16;;;7.23;100.00
76052;BME280;64751;48.708;9.710;2023-11-18T20:22:40;97755.41;;;7.24;100.00
76052;BME280;64751;48.708;9.710;2023-11-18T20:25:12;97741.78;;;7.27;100.00
76052;BME280;64751;48.708;9.710;2023-11-18T20:27:47;97733.34;;;7.25;100.00
76052;BME280;64751;48.708;9.710;2023-11-18T20:30:14;97722.47;;;7.12;99.80
76052;BME280;64751;48.708;9.710;2023-11-18T20:32:48;97718.03;;;7.12;100.00
76052;BME280;64751;48.708;9.710;2023-11-18T20:35:20;97707.50;;;7.12;100.00
76052;BME280;64751;48.708;9.710;2023-11-18T20:37:48;97711.16;;;7.11;100.00
76052;BME280;64751;48.708;9.710;2023-11-18T20:40:20;97726.44;;;7.14;100.00
76052;BME280;64751;48.708;9.710;2023-11-18T20:42:49;97736.41;;;7.17;100.00
76052;BME280;64751;48.708;9.710;2023-11-18T20:45:17;97741.19;;;7.20;100.00
76052;BME280;64751;48.708;9.710;2023-11-18T20:47:45;97760.63;;;7.19;100.00
76052;BME280;64751;48.708;9.710;2023-11-18T20:50:17;97776.94;;;7.21;100.00
76052;BME280;64751;48.708;9.710;2023-11-18T20:52:50;97778.50;;;7.22;100.00
76052;BME280;64751;48.708;9.710;2023-11-18T20:55:22;97765.38;;;7.22;100.00
76052;BME280;64751;48.708;9.710;2023-11-18T20:57:51;97756.47;;;7.23;100.00
76052;BME280;64751;48.708;9.710;2023-11-18T21:00:23;97755.94;;;7.26;100.00
76052;BME280;64751;48.708;9.710;2023-11-18T21:02:56;97753.84;;;7.28;100.00
76052;BME280;64751;48.708;9.710;2023-11-18T21:05:28;97748.59;;;7.28;100.00
76052;BME280;64751;48.708;9.710;2023-11-18T21:08:01;97739.69;;;7.29;100.00
76052;BME280;64751;48.708;9.710;2023-11-18T21:10:32;97732.88;;;7.33;100.00
76052;BME280;64751;48.708;9.710;2023-11-18T21:13:01;97734.50;;;7.35;100.00
76052;BME280;64751;48.708;9.710;2023-11-18T21:15:33;97731.88;;;7.35;100.00
76052;BME280;64751;48.708;9.710;2023-11-18T21:18:06;97741.28;;;7.30;100.00
76052;BME280;64751;48.708;9.710;2023-11-18T21:20:34;97743.13;;;7.30;100.00
76052;BME280;64751;48.708;9.710;2023-11-18T21:23:06;97727.59;;;7.28;100.00
76052;BME280;64751;48.708;9.710;2023-11-18T21:25:39;97715.78;;;7.26;100.00
76052;BME280;64751;48.708;9.710;2023-11-18T21:28:13;97715.66;;;7.16;100.00
76052;BME280;64751;48.708;9.710;2023-11-18T21:30:40;97710.72;;;7.19;100.00
76052;BME280;64751;48.708;9.710;2023-11-18T21:33:08;97706.50;;;7.18;100.00
76052;BME280;64751;48.708;9.710;2023-11-18T21:35:35;97700.72;;;7.16;100.00
76052;BME280;64751;48.708;9.710;2023-11-18T21:38:08;97708.84;;;7.15;100.00
76052;BME280;64751;48.708;9.710;2023-11-18T21:40:36;97714.88;;;7.15;100.00
76052;BME280;64751;48.708;9.710;2023-11-18T21:43:03;97709.13;;;7.18;100.00
76052;BME280;64751;48.708;9.710;2023-11-18T21:45:32;97707.03;;;7.20;100.00
76052;BME280;64751;48.708;9.710;2023-11-18T21:48:06;97703.41;;;7.26;100.00
76052;BME280;64751;48.708;9.710;2023-11-18T21:50:34;97690.03;;;7.28;100.00
76052;BME280;64751;48.708;9.710;2023-11-18T21:53:02;97686.34;;;7.29;100.00
76052;BME280;64751;48.708;9.710;2023-11-18T21:55:32;97687.97;;;7.30;100.00
76052;BME280;64751;48.708;9.710;2023-11-18T21:57:59;97685.34;;;7.30;100.00
76052;BME280;64751;48.708;9.710;2023-11-18T22:00:33;97679.31;;;7.35;100.00
76052;BME280;64751;48.708;9.710;2023-11-18T22:03:06;97682.75;;;7.35;100.00
76052;BME280;64751;48.708;9.710;2023-11-18T22:05:33;97675.69;;;7.41;100.00
76052;BME280;64751;48.708;9.710;2023-11-18T22:08:06;97662.06;;;7.44;100.00
76052;BME280;64751;48.708;9.710;2023-11-18T22:10:39;97651.00;;;7.47;100.00
76052;BME280;64751;48.708;9.710;2023-11-18T22:13:11;97662.31;;;7.47;100.00
76052;BME280;64751;48.708;9.710;2023-11-18T22:15:40;97654.69;;;7.46;100.00
76052;BME280;64751;48.708;9.710;2023-11-18T22:18:08;97666.78;;;7.47;100.00
76052;BME280;64751;48.708;9.710;2023-11-18T22:20:41;97666.00;;;7.46;100.00
76052;BME280;64751;48.708;9.710;2023-11-18T22:23:10;97669.41;;;7.47;100.00
76052;BME280;64751;48.708;9.710;2023-11-18T22:25:46;97672.03;;;7.47;100.00
76052;BME280;64751;48.708;9.710;2023-11-18T22:28:22;97665.50;;;7.49;100.00
76052;BME280;64751;48.708;9.710;2023-11-18T22:30:55;97661.56;;;7.52;100.00
76052;BME280;64751;48.708;9.710;2023-11-18T22:33:24;97663.75;;;7.60;100.00
76052;BME280;64751;48.708;9.710;2023-11-18T22:35:52;97664.50;;;7.60;100.00
76052;BME280;64751;48.708;9.710;2023-11-18T22:38:24;97669.00;;;7.60;100.00
76052;BME280;64751;48.708;9.710;2023-11-18T22:40:57;97662.13;;;7.59;100.00
76052;BME280;64751;48.708;9.710;2023-11-18T22:43:25;97653.72;;;7.57;100.00
76052;BME280;64751;48.708;9.710;2023-11-18T22:45:58;97656.34;;;7.57;100.00
76052;BME280;64751;48.708;9.710;2023-11-18T22:48:31;97644.25;;;7.56;100.00
76052;BME280;64751;48.708;9.710;2023-11-18T22:50:59;97649.50;;;7.56;100.00
76052;BME280;64751;48.708;9.710;2023-11-18T22:53:26;97640.63;;;7.67;100.00
76052;BME280;64751;48.708;9.710;2023-11-18T22:55:59;97639.38;;;8.31;100.00
76052;BME280;64751;48.708;9.710;2023-11-18T22:58:31;97639.47;;;9.02;100.00
